Time;durP1;ratioP1;P1;durP2;ratioP2;P2;SDS_P1;SDS_P2;PMS_P1;PMS_P2;Temp;Humidity;BMP_temperature;BMP_pressure;BME280_temperature;BME280_humidity;BME280_pressure;Samples;Min_cycle;Max_cycle;Signal;HPM_P1;HPM_P2
2021/11/22 00:01:26;;;;;;;;;;;6.50;99.90;;;;;;5069794;28;19920;-78
2021/11/22 00:03:51;;;;;;;;;;;6.40;99.90;;;;;;5080333;28;20185;-77
2021/11/22 00:06:17;;;;;;;;;;;6.40;99.90;;;;;;5077336;28;19920;-86
2021/11/22 00:08:43;;;;;;;;;;;6.40;99.90;;;;;;5081135;28;19912;-77
2021/11/22 00:11:08;;;;;;;;;;;6.40;99.90;;;;;;5086454;28;19970;-78
2021/11/22 00:13:34;;;;;;;;;;;6.40;99.90;;;;;;5086014;28;19912;-77
2021/11/22 00:15:59;;;;;;;;;;;6.40;99.90;;;;;;5072953;28;19943;-85
2021/11/22 00:18:25;;;;;;;;;;;6.40;99.90;;;;;;5080078;28;19916;-77
2021/11/22 00:20:50;;;;;;;;;;;6.40;99.90;;;;;;5090294;28;19912;-77
2021/11/22 00:23:16;;;;;;;;;;;6.40;99.90;;;;;;5080193;28;19970;-78
2021/11/22 00:25:42;;;;;;;;;;;6.40;99.90;;;;;;5074519;28;19966;-78
2021/11/22 00:28:07;;;;;;;;;;;6.40;99.90;;;;;;5073166;28;19921;-78
2021/11/22 00:30:33;;;;;;;;;;;6.40;99.90;;;;;;5083305;28;20011;-77
2021/11/22 00:33:01;;;;;;;;;;;6.40;99.90;;;;;;5078476;28;19924;-78
2021/11/22 00:35:32;;;;;;;;;;;6.30;99.90;;;;;;5082036;28;19955;-78
2021/11/22 00:37:59;;;;;;;;;;;6.30;99.90;;;;;;5075214;28;19920;-78
2021/11/22 00:40:25;;;;;;;;;;;6.20;99.90;;;;;;5081153;28;20207;-85
2021/11/22 00:42:50;;;;;;;;;;;6.20;99.90;;;;;;5077492;28;19913;-77
2021/11/22 00:45:16;;;;;;;;;;;6.30;99.90;;;;;;5089322;28;19919;-78
2021/11/22 00:47:42;;;;;;;;;;;6.30;99.90;;;;;;5079699;28;19920;-77
2021/11/22 00:50:08;;;;;;;;;;;6.30;99.90;;;;;;5083189;28;19919;-77
2021/11/22 00:52:34;;;;;;;;;;;6.30;99.90;;;;;;5087850;28;20294;-76
2021/11/22 00:54:59;;;;;;;;;;;6.40;99.90;;;;;;5079944;28;19916;-77
2021/11/22 00:57:25;;;;;;;;;;;6.40;99.90;;;;;;5076971;28;20210;-77
2021/11/22 00:59:51;;;;;;;;;;;6.40;99.90;;;;;;5091144;28;19924;-77
2021/11/22 01:02:16;;;;;;;;;;;6.40;99.90;;;;;;5081443;28;20001;-76
2021/11/22 01:04:42;;;;;;;;;;;6.30;99.90;;;;;;5074851;28;19938;-76
2021/11/22 01:07:07;;;;;;;;;;;6.30;99.90;;;;;;5072689;28;20252;-78
2021/11/22 01:09:33;;;;;;;;;;;6.20;99.90;;;;;;5076561;28;19912;-77
2021/11/22 01:11:59;;;;;;;;;;;6.20;99.90;;;;;;5083074;28;19923;-77
2021/11/22 01:14:25;;;;;;;;;;;6.20;99.90;;;;;;5072698;28;19919;-77
2021/11/22 01:16:51;;;;;;;;;;;6.20;99.90;;;;;;5079323;28;20330;-77
2021/11/22 01:19:17;;;;;;;;;;;6.20;99.90;;;;;;5086194;28;20234;-77
2021/11/22 01:21:42;;;;;;;;;;;6.20;99.90;;;;;;5072844;28;19913;-77
2021/11/22 01:24:08;;;;;;;;;;;6.10;99.90;;;;;;5060910;28;19935;-78
2021/11/22 01:26:33;;;;;;;;;;;6.10;99.90;;;;;;5073403;28;19914;-77
2021/11/22 01:28:59;;;;;;;;;;;6.10;99.90;;;;;;5070662;28;19999;-77
2021/11/22 01:31:25;;;;;;;;;;;6.10;99.90;;;;;;5074722;28;19928;-77
2021/11/22 01:33:51;;;;;;;;;;;6.10;99.90;;;;;;5078110;28;19960;-77
2021/11/22 01:36:16;;;;;;;;;;;6.00;99.90;;;;;;5087949;28;19917;-78
2021/11/22 01:38:42;;;;;;;;;;;6.00;99.90;;;;;;5078511;28;19924;-78
2021/11/22 01:41:08;;;;;;;;;;;6.00;99.90;;;;;;5073215;28;20322;-79
2021/11/22 01:43:36;;;;;;;;;;;6.00;99.90;;;;;;5075862;28;20202;-78
2021/11/22 01:46:02;;;;;;;;;;;6.00;99.90;;;;;;5085075;28;20238;-77
2021/11/22 01:48:28;;;;;;;;;;;6.00;99.90;;;;;;5075372;28;19976;-77
2021/11/22 01:50:53;;;;;;;;;;;6.00;99.90;;;;;;5086685;28;19912;-78
2021/11/22 01:53:20;;;;;;;;;;;6.00;99.90;;;;;;5073294;28;20003;-76
2021/11/22 01:55:46;;;;;;;;;;;6.00;99.90;;;;;;5084316;28;19923;-77
2021/11/22 01:58:12;;;;;;;;;;;5.90;99.90;;;;;;5082625;28;20226;-76
2021/11/22 02:00:39;;;;;;;;;;;5.90;99.90;;;;;;5077893;28;19912;-77
2021/11/22 02:03:05;;;;;;;;;;;5.80;99.90;;;;;;5078345;28;19919;-76
2021/11/22 02:05:32;;;;;;;;;;;5.80;99.90;;;;;;5074228;28;19912;-77
2021/11/22 02:07:59;;;;;;;;;;;5.80;99.90;;;;;;5080814;28;19912;-83
2021/11/22 02:10:25;;;;;;;;;;;5.90;99.90;;;;;;5089672;28;19912;-76
2021/11/22 02:12:51;;;;;;;;;;;5.80;99.90;;;;;;5070603;28;19917;-76
2021/11/22 02:15:18;;;;;;;;;;;5.70;99.90;;;;;;5070001;28;20061;-76
2021/11/22 02:17:44;;;;;;;;;;;5.60;99.90;;;;;;5069299;28;19943;-77
2021/11/22 02:20:18;;;;;;;;;;;5.60;99.90;;;;;;5078449;28;21489;-77
2021/11/22 02:22:45;;;;;;;;;;;5.70;99.90;;;;;;5079994;28;19919;-77
2021/11/22 02:25:12;;;;;;;;;;;5.70;99.90;;;;;;5077645;28;19919;-85
2021/11/22 02:27:38;;;;;;;;;;;5.70;99.90;;;;;;5071801;28;19920;-77
2021/11/22 02:30:08;;;;;;;;;;;5.70;99.90;;;;;;5081912;28;19912;-77
2021/11/22 02:32:35;;;;;;;;;;;5.80;99.90;;;;;;5077140;28;20357;-77
2021/11/22 02:35:01;;;;;;;;;;;5.70;99.90;;;;;;5082986;28;20463;-88
2021/11/22 02:37:27;;;;;;;;;;;5.70;99.90;;;;;;5075905;28;19917;-76
2021/11/22 02:39:52;;;;;;;;;;;5.60;99.90;;;;;;5073453;28;19920;-77
2021/11/22 02:42:22;;;;;;;;;;;5.60;99.90;;;;;;5074777;28;19913;-76
2021/11/22 02:44:48;;;;;;;;;;;5.50;99.90;;;;;;5075728;28;19966;-77
2021/11/22 02:47:13;;;;;;;;;;;5.50;99.90;;;;;;5080773;28;19912;-77
2021/11/22 02:49:39;;;;;;;;;;;5.50;99.90;;;;;;5081933;28;20021;-76
2021/11/22 02:52:05;;;;;;;;;;;5.50;99.90;;;;;;5084502;28;20218;-87
2021/11/22 02:54:31;;;;;;;;;;;5.50;99.90;;;;;;5075370;28;20192;-77
2021/11/22 02:56:56;;;;;;;;;;;5.50;99.90;;;;;;5069481;28;19916;-76
2021/11/22 02:59:22;;;;;;;;;;;5.50;99.90;;;;;;5072759;28;19917;-76
2021/11/22 03:01:47;;;;;;;;;;;5.40;99.90;;;;;;5085436;28;19917;-77
2021/11/22 03:04:13;;;;;;;;;;;5.40;99.90;;;;;;5077144;28;19913;-77
2021/11/22 03:06:38;;;;;;;;;;;5.50;99.90;;;;;;5082924;28;20333;-77
2021/11/22 03:09:04;;;;;;;;;;;5.50;99.90;;;;;;5077960;28;20010;-77
2021/11/22 03:11:30;;;;;;;;;;;5.60;99.90;;;;;;5070331;28;19917;-77
2021/11/22 03:13:56;;;;;;;;;;;5.60;99.90;;;;;;5078583;28;20711;-77
2021/11/22 03:16:24;;;;;;;;;;;5.60;99.90;;;;;;5084602;28;19981;-77
2021/11/22 03:18:49;;;;;;;;;;;5.60;99.90;;;;;;5076034;28;20282;-89
2021/11/22 03:21:15;;;;;;;;;;;5.50;99.90;;;;;;5075042;28;20007;-76
2021/11/22 03:23:42;;;;;;;;;;;5.40;99.90;;;;;;5081242;28;19913;-76
2021/11/22 03:26:07;;;;;;;;;;;5.40;99.90;;;;;;5077434;28;19955;-77
2021/11/22 03:28:33;;;;;;;;;;;5.40;99.90;;;;;;5083217;28;19956;-77
2021/11/22 03:30:59;;;;;;;;;;;5.40;99.90;;;;;;5069619;28;19913;-77
2021/11/22 03:33:25;;;;;;;;;;;5.40;99.90;;;;;;5079580;28;19999;-77
2021/11/22 03:35:53;;;;;;;;;;;5.50;99.90;;;;;;5077313;28;20322;-76
2021/11/22 03:38:20;;;;;;;;;;;5.50;99.90;;;;;;5078563;28;19912;-76
2021/11/22 03:40:47;;;;;;;;;;;5.60;99.90;;;;;;5073092;28;19916;-76
2021/11/22 03:46:18;;;;;;;;;;;5.60;99.90;;;;;;5005082;28;19997;-77
2021/11/22 03:48:43;;;;;;;;;;;5.50;99.90;;;;;;5013878;28;19919;-77
2021/11/22 03:51:09;;;;;;;;;;;5.50;99.90;;;;;;5039117;28;20066;-76
2021/11/22 03:53:35;;;;;;;;;;;5.40;99.90;;;;;;5079715;28;19916;-76
2021/11/22 03:56:01;;;;;;;;;;;5.50;99.90;;;;;;5080321;28;19916;-84
2021/11/22 03:58:26;;;;;;;;;;;5.40;99.90;;;;;;5077038;28;19916;-77
2021/11/22 04:00:52;;;;;;;;;;;5.40;99.90;;;;;;5074942;28;19920;-76
2021/11/22 04:03:18;;;;;;;;;;;5.40;99.90;;;;;;5072075;28;19912;-76
2021/11/22 04:05:43;;;;;;;;;;;5.40;99.90;;;;;;5082236;28;20196;-76
2021/11/22 04:08:09;;;;;;;;;;;5.40;99.90;;;;;;5083234;28;19935;-77
2021/11/22 04:10:35;;;;;;;;;;;5.40;99.90;;;;;;5082277;28;19912;-76
2021/11/22 04:13:01;;;;;;;;;;;5.50;99.90;;;;;;5073343;28;20370;-76
2021/11/22 04:15:27;;;;;;;;;;;5.60;99.90;;;;;;5081775;28;20275;-77
2021/11/22 04:17:52;;;;;;;;;;;5.60;99.90;;;;;;5077172;28;19985;-77
2021/11/22 04:20:18;;;;;;;;;;;5.60;99.90;;;;;;5071767;28;20295;-77
2021/11/22 04:22:44;;;;;;;;;;;5.70;99.90;;;;;;5076482;28;20222;-77
2021/11/22 04:25:09;;;;;;;;;;;5.70;99.90;;;;;;5074117;28;20184;-76
2021/11/22 04:27:36;;;;;;;;;;;5.70;99.90;;;;;;5066813;28;19942;-76
2021/11/22 04:30:01;;;;;;;;;;;5.70;99.90;;;;;;5077135;28;19913;-76
2021/11/22 04:32:27;;;;;;;;;;;5.70;99.90;;;;;;5071025;28;20219;-85
2021/11/22 04:34:53;;;;;;;;;;;5.70;99.90;;;;;;5076546;28;19912;-76
2021/11/22 04:37:18;;;;;;;;;;;5.70;99.90;;;;;;5073421;28;19917;-76
2021/11/22 04:39:44;;;;;;;;;;;5.70;99.90;;;;;;5080050;28;19916;-76
2021/11/22 04:42:09;;;;;;;;;;;5.60;99.90;;;;;;5063944;28;19925;-85
2021/11/22 04:44:35;;;;;;;;;;;5.50;99.90;;;;;;5070338;28;19991;-76
2021/11/22 04:47:01;;;;;;;;;;;5.50;99.90;;;;;;5082494;28;19923;-76
2021/11/22 04:49:27;;;;;;;;;;;5.40;99.90;;;;;;5078824;28;19999;-76
2021/11/22 04:51:52;;;;;;;;;;;5.40;99.90;;;;;;5080473;28;20365;-76
2021/11/22 04:54:18;;;;;;;;;;;5.40;99.90;;;;;;5081768;28;19939;-76
2021/11/22 04:56:43;;;;;;;;;;;5.30;99.90;;;;;;5077576;28;20218;-77
2021/11/22 04:59:09;;;;;;;;;;;5.20;99.90;;;;;;5071787;28;20211;-76
2021/11/22 05:01:35;;;;;;;;;;;5.20;99.90;;;;;;5074651;28;20226;-75
2021/11/22 05:04:00;;;;;;;;;;;5.20;99.90;;;;;;5072385;28;20019;-75
2021/11/22 05:06:26;;;;;;;;;;;5.10;99.90;;;;;;5071087;28;19920;-75
2021/11/22 05:08:52;;;;;;;;;;;5.10;99.90;;;;;;5081220;28;19923;-75
2021/11/22 05:11:17;;;;;;;;;;;5.10;99.90;;;;;;5082368;28;19924;-76
2021/11/22 05:13:43;;;;;;;;;;;5.10;99.90;;;;;;5074017;28;19913;-76
2021/11/22 05:16:08;;;;;;;;;;;5.10;99.90;;;;;;5080682;28;19913;-85
2021/11/22 05:18:34;;;;;;;;;;;5.10;99.90;;;;;;5080485;28;19928;-77
2021/11/22 05:21:00;;;;;;;;;;;5.10;99.90;;;;;;5070955;28;19919;-76
2021/11/22 05:23:25;;;;;;;;;;;5.00;99.90;;;;;;5077424;28;19948;-76
2021/11/22 05:25:51;;;;;;;;;;;5.00;99.90;;;;;;5079629;28;19995;-85
2021/11/22 05:28:16;;;;;;;;;;;5.00;99.90;;;;;;5073245;28;19920;-76
2021/11/22 05:30:42;;;;;;;;;;;4.90;99.90;;;;;;5079482;28;19928;-75
2021/11/22 05:33:07;;;;;;;;;;;5.00;99.90;;;;;;5082874;28;19916;-76
2021/11/22 05:35:34;;;;;;;;;;;5.00;99.90;;;;;;5076650;28;19921;-76
2021/11/22 05:38:00;;;;;;;;;;;5.00;99.90;;;;;;5075969;28;19938;-76
2021/11/22 05:40:25;;;;;;;;;;;4.90;99.90;;;;;;5087881;28;20324;-75
2021/11/22 05:42:53;;;;;;;;;;;4.80;99.90;;;;;;5076147;28;19932;-76
2021/11/22 05:45:19;;;;;;;;;;;4.80;99.90;;;;;;5077523;28;19912;-76
2021/11/22 05:47:45;;;;;;;;;;;4.70;99.90;;;;;;5085433;28;19913;-76
2021/11/22 05:50:11;;;;;;;;;;;4.70;99.90;;;;;;5083717;28;19919;-76
2021/11/22 05:52:38;;;;;;;;;;;4.70;99.90;;;;;;5072620;28;20002;-75
2021/11/22 05:55:06;;;;;;;;;;;4.70;99.90;;;;;;5086446;28;19912;-76
2021/11/22 05:57:31;;;;;;;;;;;4.60;99.90;;;;;;5082704;28;19921;-76
2021/11/22 05:59:57;;;;;;;;;;;4.60;99.90;;;;;;5089821;28;19923;-76
2021/11/22 06:02:23;;;;;;;;;;;4.60;99.90;;;;;;5080730;28;19923;-76
2021/11/22 06:04:49;;;;;;;;;;;4.60;99.90;;;;;;5078335;28;19912;-76
2021/11/22 06:07:14;;;;;;;;;;;4.60;99.90;;;;;;5075602;28;19913;-76
2021/11/22 06:09:40;;;;;;;;;;;4.50;99.90;;;;;;5080603;28;20223;-75
2021/11/22 06:12:06;;;;;;;;;;;4.50;99.90;;;;;;5076938;28;19924;-76
2021/11/22 06:14:32;;;;;;;;;;;4.40;99.90;;;;;;5072653;28;19922;-76
2021/11/22 06:16:57;;;;;;;;;;;4.40;99.90;;;;;;5075269;28;19920;-75
2021/11/22 06:19:23;;;;;;;;;;;4.40;99.90;;;;;;5072997;28;19927;-76
2021/11/22 06:21:49;;;;;;;;;;;4.30;99.90;;;;;;5075626;28;19920;-76
2021/11/22 06:24:16;;;;;;;;;;;4.30;99.90;;;;;;5081930;28;19916;-76
2021/11/22 06:26:41;;;;;;;;;;;4.40;99.90;;;;;;5077128;28;19920;-77
2021/11/22 06:29:09;;;;;;;;;;;4.30;99.90;;;;;;5075586;28;19912;-76
2021/11/22 06:31:34;;;;;;;;;;;4.30;99.90;;;;;;5081189;28;20016;-75
2021/11/22 06:34:00;;;;;;;;;;;4.20;99.90;;;;;;5071551;28;20007;-75
2021/11/22 06:36:26;;;;;;;;;;;4.20;99.90;;;;;;5076672;28;19919;-76
2021/11/22 06:38:51;;;;;;;;;;;4.10;99.90;;;;;;5074160;28;20336;-75
2021/11/22 06:41:17;;;;;;;;;;;4.20;99.90;;;;;;5076152;28;19927;-76
2021/11/22 06:43:42;;;;;;;;;;;4.20;99.90;;;;;;5076644;28;19912;-76
2021/11/22 06:46:08;;;;;;;;;;;4.20;99.90;;;;;;5079349;28;19999;-76
2021/11/22 06:48:34;;;;;;;;;;;4.20;99.90;;;;;;5074049;28;19916;-76
2021/11/22 06:50:59;;;;;;;;;;;4.20;99.90;;;;;;5058437;28;20103;-75
2021/11/22 06:53:25;;;;;;;;;;;4.10;99.90;;;;;;5075654;28;19962;-75
2021/11/22 06:55:51;;;;;;;;;;;4.10;99.90;;;;;;5075683;28;20262;-75
2021/11/22 06:58:17;;;;;;;;;;;4.10;99.90;;;;;;5087777;28;19923;-75
2021/11/22 07:00:43;;;;;;;;;;;4.00;99.90;;;;;;5070427;28;19912;-75
2021/11/22 07:03:09;;;;;;;;;;;4.00;99.90;;;;;;5059199;28;19920;-76
2021/11/22 07:05:35;;;;;;;;;;;4.00;99.90;;;;;;5068294;28;19917;-75
2021/11/22 07:08:04;;;;;;;;;;;4.00;99.90;;;;;;5067245;28;20361;-77
2021/11/22 07:10:29;;;;;;;;;;;3.90;99.90;;;;;;5072192;28;20303;-76
2021/11/22 07:12:55;;;;;;;;;;;3.80;99.90;;;;;;5069171;28;19916;-82
2021/11/22 07:15:21;;;;;;;;;;;3.80;99.90;;;;;;5066850;28;20227;-74
2021/11/22 07:17:47;;;;;;;;;;;3.70;99.90;;;;;;5071396;28;19931;-75
2021/11/22 07:20:13;;;;;;;;;;;3.60;99.90;;;;;;5067318;28;19927;-75
2021/11/22 07:22:38;;;;;;;;;;;3.60;99.90;;;;;;5070088;28;19920;-76
2021/11/22 07:25:04;;;;;;;;;;;3.60;99.90;;;;;;5071011;28;19916;-75
2021/11/22 07:27:30;;;;;;;;;;;3.60;99.90;;;;;;5069590;28;19948;-75
2021/11/22 07:29:56;;;;;;;;;;;3.60;99.90;;;;;;5067749;28;19913;-75
2021/11/22 07:32:22;;;;;;;;;;;3.70;99.90;;;;;;5066279;28;20323;-75
2021/11/22 07:34:47;;;;;;;;;;;3.70;99.90;;;;;;5070693;28;19920;-75
2021/11/22 07:37:13;;;;;;;;;;;3.70;99.90;;;;;;5068273;28;19913;-76
2021/11/22 07:39:39;;;;;;;;;;;3.80;99.90;;;;;;5067754;28;19913;-75
2021/11/22 07:42:04;;;;;;;;;;;3.90;99.90;;;;;;5069378;28;20294;-75
2021/11/22 07:44:30;;;;;;;;;;;4.10;99.90;;;;;;5069203;28;20188;-76
2021/11/22 07:46:57;;;;;;;;;;;4.20;99.90;;;;;;5065968;28;19985;-76
2021/11/22 07:49:23;;;;;;;;;;;4.40;99.90;;;;;;5074332;28;20323;-75
2021/11/22 07:51:48;;;;;;;;;;;4.40;99.90;;;;;;5068611;28;20270;-75
2021/11/22 07:54:15;;;;;;;;;;;4.40;99.90;;;;;;5068836;28;19913;-86
2021/11/22 07:56:41;;;;;;;;;;;4.50;99.90;;;;;;5068186;28;20037;-75
2021/11/22 07:59:07;;;;;;;;;;;4.60;99.90;;;;;;5068096;28;19928;-75
2021/11/22 08:01:32;;;;;;;;;;;4.60;99.90;;;;;;5068708;28;19916;-75
2021/11/22 08:03:58;;;;;;;;;;;4.70;99.90;;;;;;5065190;28;19917;-76
2021/11/22 08:06:24;;;;;;;;;;;4.60;99.90;;;;;;5072249;28;20441;-75
2021/11/22 08:08:51;;;;;;;;;;;4.70;99.90;;;;;;5075417;28;19913;-76
2021/11/22 08:11:30;;;;;;;;;;;4.70;99.90;;;;;;5070564;28;19921;-75
2021/11/22 08:13:56;;;;;;;;;;;4.70;99.90;;;;;;5071979;28;19923;-75
2021/11/22 08:16:22;;;;;;;;;;;4.70;99.90;;;;;;5077085;28;19916;-75
2021/11/22 08:18:47;;;;;;;;;;;4.70;99.90;;;;;;5071969;28;19913;-76
2021/11/22 08:21:13;;;;;;;;;;;4.80;99.90;;;;;;5071821;28;19913;-76
2021/11/22 08:23:39;;;;;;;;;;;4.90;99.90;;;;;;5070875;28;19956;-76
2021/11/22 08:26:05;;;;;;;;;;;4.90;99.90;;;;;;5078498;28;19920;-75
2021/11/22 08:28:31;;;;;;;;;;;5.00;99.90;;;;;;5065661;28;20097;-75
2021/11/22 08:30:57;;;;;;;;;;;5.00;99.90;;;;;;5076054;28;19999;-75
2021/11/22 08:33:23;;;;;;;;;;;4.90;99.90;;;;;;5074877;28;19923;-76
2021/11/22 08:35:48;;;;;;;;;;;4.90;99.90;;;;;;5065988;28;20015;-77
2021/11/22 08:38:15;;;;;;;;;;;4.80;99.90;;;;;;5069219;28;20485;-76
2021/11/22 08:40:42;;;;;;;;;;;4.80;99.90;;;;;;5068712;28;20016;-83
2021/11/22 08:43:11;;;;;;;;;;;4.80;99.90;;;;;;5064567;28;19923;-75
2021/11/22 08:45:38;;;;;;;;;;;4.70;99.90;;;;;;5070699;28;19916;-76
2021/11/22 08:48:04;;;;;;;;;;;4.80;99.90;;;;;;5077085;28;19916;-85
2021/11/22 08:50:30;;;;;;;;;;;5.00;99.90;;;;;;5085608;28;20236;-83
2021/11/22 08:52:56;;;;;;;;;;;5.20;99.90;;;;;;5076965;28;19923;-75
2021/11/22 08:55:21;;;;;;;;;;;5.30;99.90;;;;;;5082531;28;19923;-75
2021/11/22 08:57:47;;;;;;;;;;;5.60;99.90;;;;;;5079498;28;19917;-76
2021/11/22 09:00:15;;;;;;;;;;;5.70;99.90;;;;;;5071725;28;19920;-76
2021/11/22 09:02:40;;;;;;;;;;;5.80;99.90;;;;;;5057593;28;19912;-76
2021/11/22 09:05:06;;;;;;;;;;;6.00;99.90;;;;;;5071910;28;19921;-76
2021/11/22 09:07:31;;;;;;;;;;;6.00;99.90;;;;;;5069474;28;20458;-75
2021/11/22 09:09:57;;;;;;;;;;;6.10;99.90;;;;;;5071841;28;19954;-75
2021/11/22 09:12:23;;;;;;;;;;;6.10;99.90;;;;;;5069680;28;20431;-76
2021/11/22 09:14:49;;;;;;;;;;;6.20;99.90;;;;;;5069139;28;19913;-75
2021/11/22 09:17:17;;;;;;;;;;;6.30;99.90;;;;;;5086744;28;19938;-76
2021/11/22 09:19:43;;;;;;;;;;;6.40;99.90;;;;;;5067640;28;19948;-77
2021/11/22 09:22:11;;;;;;;;;;;6.50;99.90;;;;;;5070261;28;19966;-75
2021/11/22 09:24:37;;;;;;;;;;;6.50;99.90;;;;;;5071478;28;19917;-75
2021/11/22 09:27:03;;;;;;;;;;;6.50;99.90;;;;;;5065825;28;19917;-75
2021/11/22 09:29:29;;;;;;;;;;;6.60;99.90;;;;;;5069506;28;19916;-76
2021/11/22 09:31:54;;;;;;;;;;;6.60;99.90;;;;;;5073189;28;20261;-75
2021/11/22 09:34:20;;;;;;;;;;;6.70;99.90;;;;;;5069442;28;19916;-75
2021/11/22 09:36:47;;;;;;;;;;;6.80;99.90;;;;;;5081990;28;20303;-86
2021/11/22 09:39:14;;;;;;;;;;;6.80;99.90;;;;;;5068901;28;20031;-80
2021/11/22 09:41:40;;;;;;;;;;;6.90;99.90;;;;;;5069543;28;19955;-76
2021/11/22 09:44:05;;;;;;;;;;;6.90;99.90;;;;;;5072590;28;20272;-82
2021/11/22 09:46:31;;;;;;;;;;;7.00;99.90;;;;;;5071743;28;19994;-76
2021/11/22 09:48:56;;;;;;;;;;;7.00;99.90;;;;;;5069583;28;19927;-76
2021/11/22 09:51:22;;;;;;;;;;;7.00;99.90;;;;;;5068573;28;19920;-77
2021/11/22 09:53:48;;;;;;;;;;;7.10;99.90;;;;;;5071420;28;20378;-75
2021/11/22 09:56:14;;;;;;;;;;;7.10;99.90;;;;;;5071195;28;19924;-78
2021/11/22 09:58:39;;;;;;;;;;;7.20;99.90;;;;;;5072554;28;20002;-81
2021/11/22 10:01:14;;;;;;;;;;;7.20;99.90;;;;;;5069044;28;19913;-76
2021/11/22 10:03:40;;;;;;;;;;;7.30;99.90;;;;;;5056953;28;20018;-76
2021/11/22 10:06:05;;;;;;;;;;;7.40;99.90;;;;;;5068173;28;20048;-76
2021/11/22 10:08:41;;;;;;;;;;;7.40;99.90;;;;;;5071557;28;20025;-76
2021/11/22 10:11:12;;;;;;;;;;;7.40;99.90;;;;;;5059408;28;19928;-78
2021/11/22 10:13:39;;;;;;;;;;;7.50;99.90;;;;;;5067124;28;19916;-76
2021/11/22 10:16:07;;;;;;;;;;;7.50;99.90;;;;;;5067718;28;19923;-76
2021/11/22 10:18:34;;;;;;;;;;;7.60;99.90;;;;;;5065240;28;20025;-76
2021/11/22 10:21:04;;;;;;;;;;;7.60;99.90;;;;;;5069294;28;20192;-76
2021/11/22 10:23:30;;;;;;;;;;;7.60;99.90;;;;;;5066552;28;19966;-76
2021/11/22 10:25:57;;;;;;;;;;;7.60;99.90;;;;;;5069099;28;20035;-76
2021/11/22 10:28:24;;;;;;;;;;;7.70;99.90;;;;;;5065711;28;19923;-76
2021/11/22 10:30:51;;;;;;;;;;;7.70;99.90;;;;;;5065522;28;19917;-76
2021/11/22 10:33:19;;;;;;;;;;;7.80;99.90;;;;;;5071926;28;19920;-77
2021/11/22 10:35:46;;;;;;;;;;;7.70;99.90;;;;;;5072825;28;19945;-78
2021/11/22 10:38:14;;;;;;;;;;;7.70;99.90;;;;;;5070410;28;19916;-83
2021/11/22 10:40:45;;;;;;;;;;;7.70;99.90;;;;;;5068095;28;20260;-76
2021/11/22 10:43:11;;;;;;;;;;;7.80;99.90;;;;;;5065114;28;20543;-76
2021/11/22 10:45:42;;;;;;;;;;;7.70;99.90;;;;;;5066896;28;20033;-76
2021/11/22 10:48:11;;;;;;;;;;;7.80;99.90;;;;;;5067515;28;20293;-76
2021/11/22 10:50:37;;;;;;;;;;;7.80;99.90;;;;;;5069998;28;19916;-75
2021/11/22 10:53:04;;;;;;;;;;;7.90;99.90;;;;;;5072798;28;19927;-76
2021/11/22 10:55:42;;;;;;;;;;;7.90;99.90;;;;;;5066395;28;19952;-76
2021/11/22 10:58:08;;;;;;;;;;;7.80;99.90;;;;;;5066087;28;19987;-75
2021/11/22 11:00:34;;;;;;;;;;;7.90;99.90;;;;;;5071268;28;20275;-76
2021/11/22 11:03:04;;;;;;;;;;;7.90;99.90;;;;;;5074776;28;19998;-76
2021/11/22 11:05:30;;;;;;;;;;;7.90;99.90;;;;;;5072532;28;20337;-84
2021/11/22 11:08:00;;;;;;;;;;;8.00;99.90;;;;;;5083749;28;19920;-80
2021/11/22 11:10:26;;;;;;;;;;;8.00;99.90;;;;;;5054082;28;19958;-80
2021/11/22 11:12:54;;;;;;;;;;;8.00;99.90;;;;;;5065403;28;19921;-76
2021/11/22 11:15:21;;;;;;;;;;;8.10;99.90;;;;;;5068525;28;19920;-76
2021/11/22 11:17:47;;;;;;;;;;;8.10;99.90;;;;;;5058170;28;19928;-76
2021/11/22 11:20:14;;;;;;;;;;;8.10;99.90;;;;;;5064782;28;19928;-77
2021/11/22 11:22:40;;;;;;;;;;;8.10;99.90;;;;;;5073196;28;19919;-80
2021/11/22 11:25:06;;;;;;;;;;;8.20;99.90;;;;;;5071534;28;19917;-78
2021/11/22 11:27:35;;;;;;;;;;;8.30;99.90;;;;;;5078971;28;20277;-76
2021/11/22 11:30:00;;;;;;;;;;;8.30;99.90;;;;;;5074533;28;19966;-76
2021/11/22 11:32:29;;;;;;;;;;;8.30;99.90;;;;;;5069809;28;19928;-76
2021/11/22 11:34:55;;;;;;;;;;;8.40;99.90;;;;;;5071606;28;19930;-77
2021/11/22 11:37:24;;;;;;;;;;;8.40;99.90;;;;;;5070164;28;19916;-77
2021/11/22 11:39:53;;;;;;;;;;;8.50;99.90;;;;;;5076604;28;19912;-76
2021/11/22 11:42:37;;;;;;;;;;;8.50;99.90;;;;;;5066427;28;19917;-77
2021/11/22 11:45:06;;;;;;;;;;;8.50;99.90;;;;;;5066541;28;19917;-76
2021/11/22 11:48:10;;;;;;;;;;;8.60;99.90;;;;;;5066939;28;19916;-80
2021/11/22 11:50:38;;;;;;;;;;;8.40;99.90;;;;;;5027071;28;20348;-77
2021/11/22 11:53:08;;;;;;;;;;;8.30;99.90;;;;;;5009466;28;20197;-77
2021/11/22 11:55:35;;;;;;;;;;;8.30;99.90;;;;;;5049404;28;20262;-77
2021/11/22 11:58:16;;;;;;;;;;;8.30;99.90;;;;;;5069117;28;20088;-77
2021/11/22 12:00:54;;;;;;;;;;;8.30;99.90;;;;;;5077875;28;19917;-75
2021/11/22 12:03:20;;;;;;;;;;;8.40;99.90;;;;;;5065490;28;19913;-77
2021/11/22 12:05:47;;;;;;;;;;;8.30;99.90;;;;;;5066383;28;19969;-76
2021/11/22 12:08:19;;;;;;;;;;;8.40;99.90;;;;;;5062958;28;19928;-77
2021/11/22 12:10:44;;;;;;;;;;;8.50;99.90;;;;;;5065451;28;19913;-76
2021/11/22 12:13:10;;;;;;;;;;;8.50;99.90;;;;;;5067228;28;19924;-76
2021/11/22 12:15:42;;;;;;;;;;;8.40;99.90;;;;;;5065228;28;20028;-76
2021/11/22 12:18:12;;;;;;;;;;;8.40;99.90;;;;;;5050230;28;19950;-75
2021/11/22 12:20:42;;;;;;;;;;;8.40;99.90;;;;;;5064447;28;19920;-76
2021/11/22 12:23:18;;;;;;;;;;;8.30;99.90;;;;;;5053367;28;20257;-76
2021/11/22 12:25:45;;;;;;;;;;;8.40;99.90;;;;;;5069775;28;20029;-77
2021/11/22 12:28:22;;;;;;;;;;;8.40;99.90;;;;;;5065166;28;20001;-76
2021/11/22 12:30:48;;;;;;;;;;;8.50;99.90;;;;;;5069230;28;19916;-77
2021/11/22 12:33:25;;;;;;;;;;;8.50;99.90;;;;;;5063912;28;19923;-76
2021/11/22 12:35:56;;;;;;;;;;;8.50;99.90;;;;;;5065584;28;20639;-77
2021/11/22 12:38:30;;;;;;;;;;;8.50;99.90;;;;;;5065801;28;19916;-76
2021/11/22 12:40:57;;;;;;;;;;;8.50;99.90;;;;;;5063531;28;20283;-79
2021/11/22 12:43:38;;;;;;;;;;;8.60;99.90;;;;;;5071518;28;21183;-77
2021/11/22 12:46:05;;;;;;;;;;;8.60;99.90;;;;;;5070606;28;19966;-76
2021/11/22 12:48:35;;;;;;;;;;;8.50;99.90;;;;;;5065830;28;19920;-76
2021/11/22 12:51:02;;;;;;;;;;;8.50;99.90;;;;;;5067075;28;19920;-77
2021/11/22 12:53:28;;;;;;;;;;;8.50;99.90;;;;;;5073684;28;19955;-76
2021/11/22 12:55:55;;;;;;;;;;;8.60;99.90;;;;;;5078746;28;19959;-78
2021/11/22 12:58:21;;;;;;;;;;;8.60;99.90;;;;;;5070929;28;20226;-78
2021/11/22 13:00:47;;;;;;;;;;;8.60;99.90;;;;;;5075995;28;20022;-76
2021/11/22 13:03:17;;;;;;;;;;;8.60;99.90;;;;;;5078953;28;19956;-76
2021/11/22 13:05:43;;;;;;;;;;;8.60;99.90;;;;;;5076178;28;19916;-76
2021/11/22 13:08:18;;;;;;;;;;;8.60;99.90;;;;;;5057017;28;19913;-77
2021/11/22 13:10:45;;;;;;;;;;;8.50;99.90;;;;;;5065074;28;19920;-76
2021/11/22 13:13:27;;;;;;;;;;;8.40;99.90;;;;;;5062934;28;20011;-78
2021/11/22 13:15:54;;;;;;;;;;;8.40;99.90;;;;;;5081663;28;20326;-77
2021/11/22 13:18:20;;;;;;;;;;;8.40;99.90;;;;;;5068029;28;20012;-76
2021/11/22 13:20:46;;;;;;;;;;;8.30;99.90;;;;;;5076706;28;19951;-80
2021/11/22 13:23:23;;;;;;;;;;;8.30;99.90;;;;;;5069457;28;20315;-81
2021/11/22 13:25:48;;;;;;;;;;;8.30;99.90;;;;;;5072502;28;19918;-76
2021/11/22 13:28:16;;;;;;;;;;;8.30;99.90;;;;;;5074773;28;19916;-76
2021/11/22 13:30:41;;;;;;;;;;;8.30;99.90;;;;;;5058116;28;20208;-77
2021/11/22 13:33:08;;;;;;;;;;;8.40;99.90;;;;;;5064698;28;19919;-76
2021/11/22 13:35:34;;;;;;;;;;;8.40;99.90;;;;;;5062045;28;19915;-75
2021/11/22 13:38:05;;;;;;;;;;;8.40;99.90;;;;;;5074056;28;19921;-76
2021/11/22 13:40:31;;;;;;;;;;;8.40;99.90;;;;;;5074087;28;20378;-87
2021/11/22 13:43:07;;;;;;;;;;;8.40;99.90;;;;;;5078010;28;20035;-77
2021/11/22 13:45:33;;;;;;;;;;;8.50;99.90;;;;;;5087468;28;19916;-82
2021/11/22 13:47:59;;;;;;;;;;;8.40;99.90;;;;;;5076196;28;19916;-77
2021/11/22 13:50:27;;;;;;;;;;;8.40;99.90;;;;;;5069232;28;19913;-76
2021/11/22 13:52:53;;;;;;;;;;;8.40;99.90;;;;;;5063489;28;19920;-82
2021/11/22 13:55:18;;;;;;;;;;;8.40;99.90;;;;;;5056046;28;19920;-77
2021/11/22 13:57:45;;;;;;;;;;;8.50;99.90;;;;;;5066829;28;21543;-77
2021/11/22 14:00:11;;;;;;;;;;;8.40;99.90;;;;;;5070685;28;20273;-77
2021/11/22 14:02:36;;;;;;;;;;;8.50;99.90;;;;;;5065324;28;19912;-77
2021/11/22 14:05:02;;;;;;;;;;;8.50;99.90;;;;;;5069484;28;19917;-77
2021/11/22 14:07:39;;;;;;;;;;;8.50;99.90;;;;;;5071689;28;19927;-77
2021/11/22 14:10:04;;;;;;;;;;;8.50;99.90;;;;;;5077876;28;19912;-77
2021/11/22 14:12:31;;;;;;;;;;;8.50;99.90;;;;;;5077270;28;20204;-77
2021/11/22 14:14:57;;;;;;;;;;;8.60;99.90;;;;;;5078215;28;19923;-77
2021/11/22 14:17:23;;;;;;;;;;;8.50;99.90;;;;;;5070180;28;20357;-76
2021/11/22 14:20:06;;;;;;;;;;;8.50;99.90;;;;;;5086635;28;19913;-81
2021/11/22 14:22:38;;;;;;;;;;;8.50;99.90;;;;;;5067527;28;19932;-77
2021/11/22 14:25:04;;;;;;;;;;;8.40;99.90;;;;;;5065880;28;19917;-78
2021/11/22 14:27:30;;;;;;;;;;;8.40;99.90;;;;;;5066567;28;19920;-77
2021/11/22 14:29:57;;;;;;;;;;;8.50;99.90;;;;;;5063440;28;19917;-78
2021/11/22 14:32:42;;;;;;;;;;;8.50;99.90;;;;;;5083312;28;20311;-77